LTAU Airport Information

Runway Information
Runway 07 Length 9841 ft width 145 ft
Elevation 3449 ft Threshold 0 ft Heading 76
Runway 25 Length 9841 ft Width 145 ft
Elevation 3463 ft Threshold 0 ft Heading 256
Airport Frequencies
Type APP Name APP Frequency 122.1 MHZ
Type GND Name GND Frequency 121.95 MHZ
Type TWR Name TWR Frequency 122.1 MHZ
Airport Navaids
Type TACAN Name Kayseri Frequency 116900 KHZ
Type VOR-DME Name Kayseri Frequency 116300 KHZ
Airport Weather Information & NOTAM
ADDS - METARS form results

(2024 UTC 16 July 2018)
 
METAR text: LTAU 161950Z 00000KT CAVOK 18/07 Q1012 NOSIG RMK RWY07 16003KT
Conditions at: LTAU (KAYSERI/ERKILET , TR) observed 1950 UTC 16 July 2018
Temperature: 18.0°C (64°F)
Dewpoint: 7.0°C (45°F) [RH = 49%]
Pressure (altimeter): 29.88 inches Hg (1012.0 mb)
Winds: calm
Visibility: 6 or more miles (10+ km)
Ceiling: ceiling and visibility are OK
Clouds: unknown
Weather: no significant weather observed at this time